La Descente de la Lesse
Catégorie
ai1
Dinant, 30/08/2015, BEL
13 km - Classement
13km 
RangNrNomAgeIOCLigueEquipeRéelTempsTkmMoy.ScrLocalité
1.3342FMOREAUX MARTINE44BELARCH1:14:471:14:475:46 10.4392DINANT
2.3312FMAQUET FABIENNE45BELRUN 4 FUN1:15:571:15:575:51 10.2799MEAN
3.3376FPOELAERT MARIANNE49BEL1:18:111:18:116:01 9.98116HENNUYERES
4.3284FLEGRAIN EMMANUELLE46BELRUN4FUN HAVALANGE1:20:131:20:136:11 9.72134BARVAUX-CONDROZ
5.3344FMORRE LAURENCE40BEL1:20:491:20:496:13 9.65143DURNAL
6.3066FCHARLIER SANDRINE42BELRUN4FUN1:22:011:22:016:19 9.51151HAVELANGE
7.3473FVIROUX MYRIAM49BEL1:22:031:22:036:19 9.51153DÎNANT
8.3214FGOSSIAUX NATHALIE42BEL1:22:031:22:036:19 9.51154DINANT
9.3450FVAN DE VELDE AN41BEL1:22:201:22:206:20 9.47156HOBOKEN
10.3020FBECKERS FRANÇOISE42BELRUN4FUN HAVELANGE1:22:241:22:246:21 9.47157HAVELANGE
11.3550FBRIES INGRID48BELARCH1:22:461:22:466:22 9.42164SART BERNARD
12.3391FROLLIN STÉPHANIE41BELARCHHAPPY HUMAN1:24:501:24:506:32 9.20185HUY
13.3485FWILMET DEBORAH42BELE.T. ENGHIEN1:24:511:24:516:32 9.19186REBECQ
14.3546FMOREAU ANNE45BEL1:25:191:25:196:34 9.14197RHISNES
15.3190FGAIGNAGE KARINE48BELLA+BELLE1:27:211:27:216:44 8.93221CELLES
16.3347FMUSSOLIN FRANÇOISE42BELZATOPE1:27:571:27:576:46 8.87232VEDRIN
17.3195FGEORGE FREDERIQUE42BELFLEU1:29:221:29:226:53 8.73254FLEURUS
18.3011FBABYLAS JOCELYNE44BELJCPMF RAMILLIES1:30:011:30:016:56 8.67263GRAND-ROSIERE
19.3437FVANCAENEGHEM ALEXANDRA43BEL1:31:351:31:357:03 8.52275TONGRINNE
20.3489FDE LETTER AN41BELFURALOPERS1:31:421:31:427:04 8.51277DUISBURG
21.1640FTROGH HILDE48BELFURALOPERS1:31:421:31:427:04 8.51278DUISBURG
22.3023FBENDAHA EVELYNE44FRA1:32:021:32:027:05 8.48280GIVONNE
23.3380FPOUSSEUR NATHALIE43BEL1:32:351:32:357:08 8.43286THYNES
24.3353FNIERADKO KATARZYNA40BEL1:32:431:32:437:08 8.41288ZAVENTEM
25.3228FHAUDEGAND MICHÈLE43BELCAP BEAURAING1:32:571:32:577:09 8.39295BEAURAING
26.3449FVAN DER STAPPEN VERONIQUE41BELGRIMBERGEN JC1:34:051:34:057:15 8.29304S
27.3157FDUCOFFRE ANNE-FRANCE41BEL1:34:431:34:437:18 8.24314CINEY
28.3142FDEVLEMINCK SABINE48BEL1:35:221:35:227:21 8.18324DORINNE
29.3174FFILIE ALEXANDRA42BELJCPMF ECAUSSINNES1:35:411:35:417:22 8.15329ECAUSSINNES
30.3463FVERJUS SANDRINE44FRAEJCASALINS JURA1:35:481:35:487:23 8.14330S
31.3172FFACON NATHALIE45BEL1:36:331:36:337:26 8.08336CHANLY
32.3322FMELOTTE INGE41BEL1:36:491:36:497:27 8.06341CELLES
33.3236FHERMAN NATHALIE42BEL1:38:151:38:157:34 7.94354PONT À CELLES
34.1192FDIRICX ILSE49BEL1:39:011:39:017:37 7.88360HEIST OP DEN BERG
35.3201FGEUDEVERT DOMINIQUE47BELARCH1:40:211:40:217:44 7.77364CINEY
36.3460FVERBOVEN MIREILLE49BELGRIMBERGEN JC1:40:461:40:467:46 7.74365S
37.3109FDE DEYN MARTINE43BEL1:40:551:40:557:46 7.73366IXELLES
38.3021FBECKER SOFIE43BEL1:41:281:41:287:49 7.69369DINANT
39.3223FGUSTIN SOPHIE40BEL1:42:521:42:527:55 7.58380CINEY
40.3153FDUBOIS MARIE40BEL1:43:541:43:548:00 7.51394DINANT
41.3096FDARDENNE CAROLE42BELSPTW1:44:371:44:378:03 7.46396MONT-SAINT-GUIBERT
42.3062FCHARDON ARIANE45BELOCAN1:44:401:44:408:04 7.45398TILLIER
43.3502FOTTE MARIE-INÈS47BELJCHSHJCHSH1:44:531:44:538:05 7.44399HAM-SUR-HEURE
44.3497FDRAUX LAURENCE49BELJCHSHJCHSH1:44:531:44:538:05 7.44401HAM-SUR-HEURE
45.3093FDAIX BÉRENGÈRE41BELARCH1:47:181:47:188:16 7.27407ACHET
46.3087FCOTTIN VALÉRIE44BEL1:47:221:47:228:16 7.27408WARNANT
47.3054FCAP DELPHINE40BEL1:48:091:48:098:20 7.21410GEMBLOUX
DNF: abandon; DSQ: disqualifié; Vitesse en km/h
23/10/2020 - 04:02 - 66 Entrées
ChronoRace - Electronic Timing SPRL
http://www.chronorace.be

Page 1 / 2  
La Descente de la Lesse
Catégorie
ai1
Dinant, 30/08/2015, BEL
13 km - Classement
13km 
RangNrNomAgeIOCLigueEquipeRéelTempsTkmMoy.ScrLocalité
48.3399FROUSSEAU GENEVIEVE41BELMEELOPERS MEISE1:48:151:48:158:20 7.21412BEIGEM
49.3475FWANSON LAURENCE44BELADEPSATHLE COURSE LOISIRS1:48:501:48:508:23 7.17414MARCHE-LES-DAMES
50.3349FNAGY MARIANNE45BEL1:48:521:48:528:23 7.17415SCHAERBEEK
51.3244FHUPPE CATHERINE49BEL1:49:201:49:208:25 7.13423HAVELANGE
52.3313FMARION ISABELLE41BELRUN4FUN HAVELANGE1:49:291:49:298:26 7.12426HAVELANGE
53.3256FKETELBANT FRANCOISE46BELARCH1:50:151:50:158:29 7.084295340
54.3191FGARGIULO MARIE49ITAZATAC1:50:261:50:268:30 7.06430MARCINELLE
55.3442FVANDENBUSSCHE DAPHNÉ42BELZATAC1:50:261:50:268:30 7.06431LODELINSART
56.3411FSOHET ANNE43BELARCH1:51:431:51:438:36 6.98438CHEVETOGNE
57.3110FDEFOSSÉ SOPHIE41BELARCH1:52:161:52:168:39 6.95444GESVES
58.3032FBORREMANS SOPHIE42BELRCNAMUR1:53:221:53:228:44 6.88448TOHOGNE
59.3323FMENGHINI MARIELA41ARG1:54:191:54:198:48 6.82453LEUVEN
60.3334FMOLITOR CARINE46BEL1:54:451:54:458:50 6.80455HASTIERE
61.3086FCOSME INGRID41BEL1:55:221:55:228:53 6.76456BAILLONVILLE
62.3122FDELATTE CARINE47BEL1:58:361:58:369:08 6.58461MALONNE
63.3472FVINK MANDY41NLD1:58:551:58:559:09 6.56462LEUVEN
64.3431FTIHANGE ANNE46BELSMAC1:58:561:58:569:09 6.56463BOUGE
65.3343FMORELLE INGRID41BEL1:59:041:59:049:10 6.55464ANHEE
66.3083FCORDIER ISABELLE45BEL2:12:282:12:2810:12 5.89469WAHA
DNF: abandon; DSQ: disqualifié; Vitesse en km/h
23/10/2020 - 04:02 - 66 Entrées
ChronoRace - Electronic Timing SPRL
http://www.chronorace.be

Page 2 / 2